sensor_id;sensor_type;location;lat;lon;timestamp;pressure;altitude;pressure_sealevel;temperature;humidity
70434;BME280;57876;47.792;12.960;2023-03-21T00:00:57;97021.63;;;16.28;45.19
70434;BME280;57876;47.792;12.960;2023-03-21T00:03:22;97020.50;;;16.29;45.22
70434;BME280;57876;47.792;12.960;2023-03-21T00:05:47;97019.22;;;16.26;44.92
70434;BME280;57876;47.792;12.960;2023-03-21T00:08:15;97021.63;;;16.28;44.82
70434;BME280;57876;47.792;12.960;2023-03-21T00:10:39;97020.50;;;16.29;45.17
70434;BME280;57876;47.792;12.960;2023-03-21T00:13:04;97016.19;;;16.28;44.93
70434;BME280;57876;47.792;12.960;2023-03-21T00:15:28;97017.78;;;16.29;45.13
70434;BME280;57876;47.792;12.960;2023-03-21T00:17:54;97014.56;;;16.27;45.08
70434;BME280;57876;47.792;12.960;2023-03-21T00:20:21;97012.94;;;16.26;45.15
70434;BME280;57876;47.792;12.960;2023-03-21T00:22:46;97007.50;;;16.26;44.98
70434;BME280;57876;47.792;12.960;2023-03-21T00:25:10;97008.28;;;16.26;45.26
70434;BME280;57876;47.792;12.960;2023-03-21T00:27:35;97003.16;;;16.25;44.91
70434;BME280;57876;47.792;12.960;2023-03-21T00:30:00;97004.75;;;16.26;45.18
70434;BME280;57876;47.792;12.960;2023-03-21T00:32:24;97006.69;;;16.25;45.01
70434;BME280;57876;47.792;12.960;2023-03-21T00:34:49;96998.50;;;16.25;44.78
70434;BME280;57876;47.792;12.960;2023-03-21T00:37:13;96990.31;;;16.25;44.80
70434;BME280;57876;47.792;12.960;2023-03-21T00:39:39;96995.78;;;16.25;45.33
70434;BME280;57876;47.792;12.960;2023-03-21T00:42:04;96987.91;;;16.24;45.18
70434;BME280;57876;47.792;12.960;2023-03-21T00:44:29;96987.09;;;16.23;44.80
70434;BME280;57876;47.792;12.960;2023-03-21T00:46:55;96977.78;;;16.24;45.03
70434;BME280;57876;47.792;12.960;2023-03-21T00:49:19;96976.97;;;16.24;44.58
70434;BME280;57876;47.792;12.960;2023-03-21T00:51:44;96968.78;;;16.24;44.86
70434;BME280;57876;47.792;12.960;2023-03-21T00:54:10;96969.94;;;16.23;44.77
70434;BME280;57876;47.792;12.960;2023-03-21T00:56:35;96966.69;;;16.21;45.25
70434;BME280;57876;47.792;12.960;2023-03-21T00:58:59;96977.31;;;16.22;45.21
70434;BME280;57876;47.792;12.960;2023-03-21T01:01:24;96973.75;;;16.22;44.90
70434;BME280;57876;47.792;12.960;2023-03-21T01:03:49;96971.84;;;16.22;44.97
70434;BME280;57876;47.792;12.960;2023-03-21T01:06:21;96973.75;;;16.22;44.72
70434;BME280;57876;47.792;12.960;2023-03-21T01:08:47;96963.66;;;16.22;45.05
70434;BME280;57876;47.792;12.960;2023-03-21T01:11:14;96953.34;;;16.19;44.92
70434;BME280;57876;47.792;12.960;2023-03-21T01:13:39;96962.38;;;16.20;44.85
70434;BME280;57876;47.792;12.960;2023-03-21T01:16:05;96958.81;;;16.19;44.74
70434;BME280;57876;47.792;12.960;2023-03-21T01:18:30;96956.91;;;16.20;45.14
70434;BME280;57876;47.792;12.960;2023-03-21T01:20:57;96958.34;;;16.17;45.08
70434;BME280;57876;47.792;12.960;2023-03-21T01:23:22;96959.31;;;16.21;44.96
70434;BME280;57876;47.792;12.960;2023-03-21T01:25:48;96959.66;;;16.20;44.77
70434;BME280;57876;47.792;12.960;2023-03-21T01:28:13;96955.28;;;16.19;45.13
70434;BME280;57876;47.792;12.960;2023-03-21T01:30:38;96948.72;;;16.20;44.82
70434;BME280;57876;47.792;12.960;2023-03-21T01:33:02;96955.28;;;16.19;44.81
70434;BME280;57876;47.792;12.960;2023-03-21T01:35:27;96947.09;;;16.19;45.14
70434;BME280;57876;47.792;12.960;2023-03-21T01:37:51;96951.75;;;16.18;45.00
70434;BME280;57876;47.792;12.960;2023-03-21T01:40:24;96950.63;;;16.19;44.83
70434;BME280;57876;47.792;12.960;2023-03-21T01:42:48;96957.22;;;16.18;45.14
70434;BME280;57876;47.792;12.960;2023-03-21T01:48:15;96949.34;;;16.17;45.09
70434;BME280;57876;47.792;12.960;2023-03-21T01:50:41;96944.72;;;16.17;44.95
70434;BME280;57876;47.792;12.960;2023-03-21T01:53:06;96939.25;;;16.17;45.08
70434;BME280;57876;47.792;12.960;2023-03-21T01:55:31;96938.44;;;16.17;44.93
70434;BME280;57876;47.792;12.960;2023-03-21T01:57:56;96934.91;;;16.16;44.82
70434;BME280;57876;47.792;12.960;2023-03-21T02:00:23;96934.41;;;16.14;44.59
70434;BME280;57876;47.792;12.960;2023-03-21T02:02:48;96932.97;;;16.17;44.92
70434;BME280;57876;47.792;12.960;2023-03-21T02:05:25;96934.09;;;16.16;44.77
70434;BME280;57876;47.792;12.960;2023-03-21T02:07:52;96935.69;;;16.17;45.11
70434;BME280;57876;47.792;12.960;2023-03-21T02:10:17;96930.56;;;16.15;44.94
70434;BME280;57876;47.792;12.960;2023-03-21T02:12:42;96925.13;;;16.15;44.74
70434;BME280;57876;47.792;12.960;2023-03-21T02:15:07;96930.56;;;16.15;44.72
70434;BME280;57876;47.792;12.960;2023-03-21T02:18:21;96925.91;;;16.16;44.88
70434;BME280;57876;47.792;12.960;2023-03-21T02:35:02;96919.16;;;16.13;44.90
70434;BME280;57876;47.792;12.960;2023-03-21T02:37:38;96924.63;;;16.13;45.22
70434;BME280;57876;47.792;12.960;2023-03-21T02:45:25;96915.63;;;16.13;44.83
70434;BME280;57876;47.792;12.960;2023-03-21T02:47:56;96915.63;;;16.13;44.73
70434;BME280;57876;47.792;12.960;2023-03-21T02:50:37;96910.47;;;16.11;45.07
70434;BME280;57876;47.792;12.960;2023-03-21T02:53:06;96902.31;;;16.11;45.20
70434;BME280;57876;47.792;12.960;2023-03-21T02:55:33;96905.38;;;16.10;44.81
70434;BME280;57876;47.792;12.960;2023-03-21T02:58:00;96905.84;;;16.12;44.78
70434;BME280;57876;47.792;12.960;2023-03-21T03:00:29;96909.38;;;16.12;44.69
70434;BME280;57876;47.792;12.960;2023-03-21T03:02:54;96907.44;;;16.13;44.91
70434;BME280;57876;47.792;12.960;2023-03-21T03:05:27;96904.56;;;16.09;45.17
70434;BME280;57876;47.792;12.960;2023-03-21T03:18:51;96906.16;;;16.10;45.27
70434;BME280;57876;47.792;12.960;2023-03-21T03:21:21;96904.88;;;16.07;44.69
70434;BME280;57876;47.792;12.960;2023-03-21T03:23:54;96896.69;;;16.07;44.73
70434;BME280;57876;47.792;12.960;2023-03-21T03:26:40;96896.69;;;16.07;44.97
70434;BME280;57876;47.792;12.960;2023-03-21T03:29:08;96892.81;;;16.08;44.97
70434;BME280;57876;47.792;12.960;2023-03-21T03:31:40;96906.81;;;16.07;45.03
70434;BME280;57876;47.792;12.960;2023-03-21T03:34:11;96899.09;;;16.09;45.02
70434;BME280;57876;47.792;12.960;2023-03-21T03:36:43;96891.88;;;16.04;44.93
70434;BME280;57876;47.792;12.960;2023-03-21T03:39:12;96891.22;;;16.07;45.14
70434;BME280;57876;47.792;12.960;2023-03-21T03:41:48;96882.25;;;16.07;44.75
70434;BME280;57876;47.792;12.960;2023-03-21T03:44:15;96887.38;;;16.08;44.96
70434;BME280;57876;47.792;12.960;2023-03-21T03:46:59;96889.31;;;16.08;45.07
70434;BME280;57876;47.792;12.960;2023-03-21T03:49:29;96877.09;;;16.05;45.11
70434;BME280;57876;47.792;12.960;2023-03-21T03:52:03;96882.56;;;16.05;45.07
70434;BME280;57876;47.792;12.960;2023-03-21T03:54:39;96884.47;;;16.05;44.78
70434;BME280;57876;47.792;12.960;2023-03-21T03:57:06;96886.06;;;16.06;44.94
70434;BME280;57876;47.792;12.960;2023-03-21T03:59:34;96880.16;;;16.04;45.06
70434;BME280;57876;47.792;12.960;2023-03-21T04:01:59;96883.34;;;16.06;44.73
70434;BME280;57876;47.792;12.960;2023-03-21T04:04:23;96889.63;;;16.06;45.04
70434;BME280;57876;47.792;12.960;2023-03-21T04:06:51;96890.72;;;16.05;44.70
70434;BME280;57876;47.792;12.960;2023-03-21T04:09:17;96886.06;;;16.06;44.79
70434;BME280;57876;47.792;12.960;2023-03-21T04:11:41;96883.69;;;16.04;45.09
70434;BME280;57876;47.792;12.960;2023-03-21T04:14:06;96888.00;;;16.05;45.09
70434;BME280;57876;47.792;12.960;2023-03-21T04:16:30;96890.72;;;16.05;44.97
70434;BME280;57876;47.792;12.960;2023-03-21T04:18:55;96889.13;;;16.04;44.63
70434;BME280;57876;47.792;12.960;2023-03-21T04:21:19;96877.44;;;16.04;45.24
70434;BME280;57876;47.792;12.960;2023-03-21T04:23:45;96884.78;;;16.03;45.04
70434;BME280;57876;47.792;12.960;2023-03-21T04:26:10;96889.13;;;16.04;45.03
70434;BME280;57876;47.792;12.960;2023-03-21T04:28:34;96897.31;;;16.04;45.02
70434;BME280;57876;47.792;12.960;2023-03-21T04:31:00;96897.31;;;16.04;45.03
70434;BME280;57876;47.792;12.960;2023-03-21T04:33:24;96897.31;;;16.04;45.12
70434;BME280;57876;47.792;12.960;2023-03-21T04:35:56;96885.63;;;16.04;45.16
70434;BME280;57876;47.792;12.960;2023-03-21T04:38:22;96890.25;;;16.03;44.90
70434;BME280;57876;47.792;12.960;2023-03-21T04:40:47;96891.06;;;16.04;44.76
70434;BME280;57876;47.792;12.960;2023-03-21T04:43:12;96899.25;;;16.04;44.98
70434;BME280;57876;47.792;12.960;2023-03-21T04:45:36;96895.69;;;16.03;44.81
70434;BME280;57876;47.792;12.960;2023-03-21T04:48:00;96894.91;;;16.03;44.75
70434;BME280;57876;47.792;12.960;2023-03-21T04:50:25;96896.53;;;16.04;44.67
70434;BME280;57876;47.792;12.960;2023-03-21T04:52:49;96896.53;;;16.04;45.18
70434;BME280;57876;47.792;12.960;2023-03-21T04:55:14;96896.53;;;16.04;45.03
70434;BME280;57876;47.792;12.960;2023-03-21T04:57:39;96903.88;;;16.03;44.68
70434;BME280;57876;47.792;12.960;2023-03-21T05:00:05;96901.16;;;16.03;44.63
70434;BME280;57876;47.792;12.960;2023-03-21T05:02:39;96907.44;;;16.04;44.63
70434;BME280;57876;47.792;12.960;2023-03-21T05:05:04;96903.09;;;16.03;44.83
70434;BME280;57876;47.792;12.960;2023-03-21T05:07:30;96908.53;;;16.03;44.90
70434;BME280;57876;47.792;12.960;2023-03-21T05:09:55;96910.47;;;16.02;44.73
70434;BME280;57876;47.792;12.960;2023-03-21T05:12:20;96904.72;;;16.04;44.68
70434;BME280;57876;47.792;12.960;2023-03-21T05:14:44;96898.75;;;16.02;44.90
70434;BME280;57876;47.792;12.960;2023-03-21T05:17:08;96901.16;;;16.03;44.99
70434;BME280;57876;47.792;12.960;2023-03-21T05:19:33;96899.56;;;16.02;44.79
70434;BME280;57876;47.792;12.960;2023-03-21T05:21:58;96897.97;;;16.01;45.03
70434;BME280;57876;47.792;12.960;2023-03-21T05:24:22;96890.88;;;16.00;44.93
70434;BME280;57876;47.792;12.960;2023-03-21T05:26:47;96891.38;;;16.02;44.85
70434;BME280;57876;47.792;12.960;2023-03-21T05:29:16;96899.56;;;16.02;44.75
70434;BME280;57876;47.792;12.960;2023-03-21T05:31:41;96901.16;;;16.03;44.63
70434;BME280;57876;47.792;12.960;2023-03-21T05:34:05;96899.56;;;16.02;44.83
70434;BME280;57876;47.792;12.960;2023-03-21T05:36:29;96895.53;;;16.00;44.72
70434;BME280;57876;47.792;12.960;2023-03-21T05:38:57;96896.84;;;16.02;44.75
70434;BME280;57876;47.792;12.960;2023-03-21T05:41:21;96897.97;;;16.01;44.82
70434;BME280;57876;47.792;12.960;2023-03-21T05:43:46;96901.16;;;16.03;44.74
70434;BME280;57876;47.792;12.960;2023-03-21T05:46:10;96894.91;;;16.03;44.78
70434;BME280;57876;47.792;12.960;2023-03-21T05:48:35;96899.25;;;16.04;44.68
70434;BME280;57876;47.792;12.960;2023-03-21T05:51:00;96901.66;;;16.05;45.02
70434;BME280;57876;47.792;12.960;2023-03-21T05:53:24;96902.44;;;16.06;44.66
70434;BME280;57876;47.792;12.960;2023-03-21T05:55:49;96907.59;;;16.07;44.83
70434;BME280;57876;47.792;12.960;2023-03-21T05:58:13;96910.31;;;16.07;44.71
70434;BME280;57876;47.792;12.960;2023-03-21T06:00:38;96903.75;;;16.08;44.99
70434;BME280;57876;47.792;12.960;2023-03-21T06:03:02;96911.91;;;16.08;44.69
70434;BME280;57876;47.792;12.960;2023-03-21T06:05:26;96907.28;;;16.09;44.99
70434;BME280;57876;47.792;12.960;2023-03-21T06:07:51;96908.09;;;16.10;45.01
70434;BME280;57876;47.792;12.960;2023-03-21T06:10:15;96912.41;;;16.11;44.92
70434;BME280;57876;47.792;12.960;2023-03-21T06:12:40;96901.50;;;16.11;44.91
70434;BME280;57876;47.792;12.960;2023-03-21T06:15:06;96902.63;;;16.10;45.13
70434;BME280;57876;47.792;12.960;2023-03-21T06:17:31;96912.91;;;16.13;44.69
70434;BME280;57876;47.792;12.960;2023-03-21T06:19:56;96907.44;;;16.13;44.85
70434;BME280;57876;47.792;12.960;2023-03-21T06:22:21;96904.72;;;16.13;45.02
70434;BME280;57876;47.792;12.960;2023-03-21T06:24:46;96920.31;;;16.12;44.62
70434;BME280;57876;47.792;12.960;2023-03-21T06:27:10;96910.97;;;16.13;44.87
70434;BME280;57876;47.792;12.960;2023-03-21T06:29:34;96915.31;;;16.14;44.63
70434;BME280;57876;47.792;12.960;2023-03-21T06:31:59;96918.84;;;16.15;44.88
70434;BME280;57876;47.792;12.960;2023-03-21T06:34:23;96910.97;;;16.13;45.08
70434;BME280;57876;47.792;12.960;2023-03-21T06:36:48;96912.56;;;16.14;44.59
70434;BME280;57876;47.792;12.960;2023-03-21T06:39:12;96919.66;;;16.15;44.66
70434;BME280;57876;47.792;12.960;2023-03-21T06:41:37;96916.59;;;16.17;44.61
70434;BME280;57876;47.792;12.960;2023-03-21T06:44:02;96918.53;;;16.16;44.67
70434;BME280;57876;47.792;12.960;2023-03-21T06:46:26;96913.88;;;16.17;44.87
70434;BME280;57876;47.792;12.960;2023-03-21T06:48:51;96915.50;;;16.18;44.88
70434;BME280;57876;47.792;12.960;2023-03-21T06:51:15;96916.59;;;16.17;44.59
70434;BME280;57876;47.792;12.960;2023-03-21T06:53:39;96918.22;;;16.18;44.97
70434;BME280;57876;47.792;12.960;2023-03-21T06:56:04;96913.56;;;16.18;45.04
70434;BME280;57876;47.792;12.960;2023-03-21T06:58:29;96912.44;;;16.19;44.61
70434;BME280;57876;47.792;12.960;2023-03-21T07:00:53;96910.84;;;16.18;45.00
70434;BME280;57876;47.792;12.960;2023-03-21T07:03:18;96913.25;;;16.20;44.77
70434;BME280;57876;47.792;12.960;2023-03-21T07:05:42;96908.09;;;16.18;45.13
70434;BME280;57876;47.792;12.960;2023-03-21T07:08:08;96909.69;;;16.19;44.75
70434;BME280;57876;47.792;12.960;2023-03-21T07:10:38;96908.91;;;16.19;44.86
70434;BME280;57876;47.792;12.960;2023-03-21T07:13:02;96914.84;;;16.21;44.73
70434;BME280;57876;47.792;12.960;2023-03-21T07:15:27;96923.03;;;16.21;44.86
70434;BME280;57876;47.792;12.960;2023-03-21T07:17:51;96912.13;;;16.21;45.16
70434;BME280;57876;47.792;12.960;2023-03-21T07:20:16;96905.88;;;16.20;45.09
70434;BME280;57876;47.792;12.960;2023-03-21T07:22:41;96906.66;;;16.21;44.71
70434;BME280;57876;47.792;12.960;2023-03-21T07:25:06;96914.53;;;16.22;44.92
70434;BME280;57876;47.792;12.960;2023-03-21T07:27:30;96915.34;;;16.23;44.94
70434;BME280;57876;47.792;12.960;2023-03-21T07:29:55;96909.88;;;16.23;44.94
70434;BME280;57876;47.792;12.960;2023-03-21T07:32:19;96916.94;;;16.24;45.06
70434;BME280;57876;47.792;12.960;2023-03-21T07:34:44;96907.16;;;16.23;44.78
70434;BME280;57876;47.792;12.960;2023-03-21T07:37:08;96916.94;;;16.24;44.99
70434;BME280;57876;47.792;12.960;2023-03-21T07:39:33;96907.66;;;16.25;44.94
70434;BME280;57876;47.792;12.960;2023-03-21T07:41:58;96911.19;;;16.25;44.76
70434;BME280;57876;47.792;12.960;2023-03-21T07:44:25;96920.47;;;16.24;44.79
70434;BME280;57876;47.792;12.960;2023-03-21T07:46:50;96913.09;;;16.25;44.78
70434;BME280;57876;47.792;12.960;2023-03-21T07:49:14;96917.75;;;16.24;44.73
70434;BME280;57876;47.792;12.960;2023-03-21T07:51:39;96912.28;;;16.24;45.14
70434;BME280;57876;47.792;12.960;2023-03-21T07:54:03;96915.84;;;16.25;44.67
70434;BME280;57876;47.792;12.960;2023-03-21T07:56:28;96915.00;;;16.24;44.76
70434;BME280;57876;47.792;12.960;2023-03-21T07:58:52;96912.28;;;16.24;44.99
70434;BME280;57876;47.792;12.960;2023-03-21T08:01:17;96913.09;;;16.25;44.67
70434;BME280;57876;47.792;12.960;2023-03-21T08:03:41;96905.72;;;16.25;44.67
70434;BME280;57876;47.792;12.960;2023-03-21T08:06:06;96908.44;;;16.25;44.76
70434;BME280;57876;47.792;12.960;2023-03-21T08:08:31;96902.19;;;16.25;44.71
70434;BME280;57876;47.792;12.960;2023-03-21T08:10:56;96906.50;;;16.26;44.94
70434;BME280;57876;47.792;12.960;2023-03-21T08:13:21;96901.06;;;16.26;44.81
70434;BME280;57876;47.792;12.960;2023-03-21T08:15:46;96908.44;;;16.25;44.65
70434;BME280;57876;47.792;12.960;2023-03-21T08:18:10;96904.44;;;16.23;44.62
70434;BME280;57876;47.792;12.960;2023-03-21T08:20:34;96910.38;;;16.25;44.88
70434;BME280;57876;47.792;12.960;2023-03-21T08:22:59;96907.66;;;16.25;45.09
70434;BME280;57876;47.792;12.960;2023-03-21T08:25:23;96909.25;;;16.26;44.84
70434;BME280;57876;47.792;12.960;2023-03-21T08:27:48;96902.66;;;16.27;44.73
70434;BME280;57876;47.792;12.960;2023-03-21T08:30:17;96903.78;;;16.26;44.48
70434;BME280;57876;47.792;12.960;2023-03-21T08:32:42;96905.38;;;16.27;44.73
70434;BME280;57876;47.792;12.960;2023-03-21T08:35:08;96912.47;;;16.28;44.74
70434;BME280;57876;47.792;12.960;2023-03-21T08:37:33;96907.00;;;16.28;45.19
70434;BME280;57876;47.792;12.960;2023-03-21T08:39:57;96914.84;;;16.29;45.00
70434;BME280;57876;47.792;12.960;2023-03-21T08:42:22;96916.00;;;16.28;44.84
70434;BME280;57876;47.792;12.960;2023-03-21T08:44:47;96909.72;;;16.28;45.04
70434;BME280;57876;47.792;12.960;2023-03-21T08:47:11;96909.25;;;16.26;45.06
70434;BME280;57876;47.792;12.960;2023-03-21T08:49:36;96911.34;;;16.29;44.64
70434;BME280;57876;47.792;12.960;2023-03-21T08:52:01;96909.72;;;16.28;44.92
70434;BME280;57876;47.792;12.960;2023-03-21T08:54:25;96908.59;;;16.29;45.03
70434;BME280;57876;47.792;12.960;2023-03-21T08:56:50;96916.47;;;16.31;44.74
70434;BME280;57876;47.792;12.960;2023-03-21T08:59:14;96910.19;;;16.30;44.75
70434;BME280;57876;47.792;12.960;2023-03-21T09:01:39;96904.75;;;16.30;44.82
70434;BME280;57876;47.792;12.960;2023-03-21T09:04:04;96914.06;;;16.29;45.06
70434;BME280;57876;47.792;12.960;2023-03-21T09:06:30;96907.00;;;16.28;44.82
70434;BME280;57876;47.792;12.960;2023-03-21T09:08:56;96907.47;;;16.30;45.00
70434;BME280;57876;47.792;12.960;2023-03-21T09:11:21;96904.75;;;16.30;44.90
70434;BME280;57876;47.792;12.960;2023-03-21T09:13:45;96899.28;;;16.30;44.57
70434;BME280;57876;47.792;12.960;2023-03-21T09:16:10;96901.53;;;16.28;44.53
70434;BME280;57876;47.792;12.960;2023-03-21T09:18:34;96899.63;;;16.28;44.66
70434;BME280;57876;47.792;12.960;2023-03-21T09:21:13;96890.63;;;16.28;44.85
70434;BME280;57876;47.792;12.960;2023-03-21T09:23:41;96893.81;;;16.30;44.71
70434;BME280;57876;47.792;12.960;2023-03-21T09:26:08;96890.63;;;16.28;45.10
70434;BME280;57876;47.792;12.960;2023-03-21T09:28:32;96888.38;;;16.30;44.99
70434;BME280;57876;47.792;12.960;2023-03-21T09:30:58;96887.25;;;16.31;44.54
70434;BME280;57876;47.792;12.960;2023-03-21T09:33:25;96881.81;;;16.31;44.48
70434;BME280;57876;47.792;12.960;2023-03-21T09:35:52;96884.53;;;16.31;44.91
70434;BME280;57876;47.792;12.960;2023-03-21T09:38:16;96882.59;;;16.32;45.03
70434;BME280;57876;47.792;12.960;2023-03-21T09:46:09;96873.63;;;16.31;44.52
70434;BME280;57876;47.792;12.960;2023-03-21T09:51:44;96867.66;;;16.29;44.64
70434;BME280;57876;47.792;12.960;2023-03-21T09:54:24;96870.09;;;16.31;44.95
70434;BME280;57876;47.792;12.960;2023-03-21T09:56:53;96866.53;;;16.30;44.51
70434;BME280;57876;47.792;12.960;2023-03-21T09:59:24;96868.16;;;16.31;44.56
70434;BME280;57876;47.792;12.960;2023-03-21T10:01:51;96877.13;;;16.32;44.51
70434;BME280;57876;47.792;12.960;2023-03-21T10:04:16;96868.94;;;16.32;44.72
70434;BME280;57876;47.792;12.960;2023-03-21T10:06:42;96864.28;;;16.32;44.69
70434;BME280;57876;47.792;12.960;2023-03-21T10:09:20;96861.06;;;16.30;44.94
70434;BME280;57876;47.792;12.960;2023-03-21T10:11:51;96856.75;;;16.29;45.04
70434;BME280;57876;47.792;12.960;2023-03-21T10:14:20;96856.44;;;16.31;44.56
70434;BME280;57876;47.792;12.960;2023-03-21T10:16:52;96855.59;;;16.30;44.79
70434;BME280;57876;47.792;12.960;2023-03-21T10:19:20;96847.41;;;16.30;44.83
70434;BME280;57876;47.792;12.960;2023-03-21T10:21:47;96853.53;;;16.27;44.96
70434;BME280;57876;47.792;12.960;2023-03-21T10:24:20;96854.50;;;16.31;44.48
70434;BME280;57876;47.792;12.960;2023-03-21T10:26:46;96849.03;;;16.31;44.71
70434;BME280;57876;47.792;12.960;2023-03-21T10:29:13;96844.69;;;16.30;44.55
70434;BME280;57876;47.792;12.960;2023-03-21T10:31:40;96846.63;;;16.29;44.57
70434;BME280;57876;47.792;12.960;2023-03-21T10:34:32;96835.41;;;16.31;44.47
70434;BME280;57876;47.792;12.960;2023-03-21T10:37:00;96838.94;;;16.32;44.81
70434;BME280;57876;47.792;12.960;2023-03-21T10:39:39;96833.78;;;16.30;44.94
70434;BME280;57876;47.792;12.960;2023-03-21T10:42:04;96833.16;;;16.33;44.81
70434;BME280;57876;47.792;12.960;2023-03-21T10:44:30;96819.81;;;16.32;44.86
70434;BME280;57876;47.792;12.960;2023-03-21T10:46:58;96827.22;;;16.31;44.89
70434;BME280;57876;47.792;12.960;2023-03-21T10:49:28;96823.69;;;16.31;44.95
70434;BME280;57876;47.792;12.960;2023-03-21T10:51:56;96819.81;;;16.32;44.77
70434;BME280;57876;47.792;12.960;2023-03-21T10:54:25;96818.38;;;16.34;44.54
70434;BME280;57876;47.792;12.960;2023-03-21T10:56:57;96823.84;;;16.34;44.68
70434;BME280;57876;47.792;12.960;2023-03-21T10:59:25;96819.81;;;16.32;44.54
70434;BME280;57876;47.792;12.960;2023-03-21T11:01:51;96818.38;;;16.34;44.53
70434;BME280;57876;47.792;12.960;2023-03-21T11:04:21;96819.50;;;16.33;45.05
70434;BME280;57876;47.792;12.960;2023-03-21T11:06:53;96810.84;;;16.31;45.05
70434;BME280;57876;47.792;12.960;2023-03-21T11:09:20;96822.25;;;16.33;44.88
70434;BME280;57876;47.792;12.960;2023-03-21T11:11:52;96805.38;;;16.31;44.44
70434;BME280;57876;47.792;12.960;2023-03-21T11:17:28;96801.22;;;16.34;44.58
70434;BME280;57876;47.792;12.960;2023-03-21T11:20:04;96797.69;;;16.33;44.88
70434;BME280;57876;47.792;12.960;2023-03-21T11:22:39;96785.78;;;16.29;44.82
70434;BME280;57876;47.792;12.960;2023-03-21T11:25:06;96776.16;;;16.32;44.64
70434;BME280;57876;47.792;12.960;2023-03-21T11:27:32;96784.34;;;16.32;44.84
70434;BME280;57876;47.792;12.960;2023-03-21T11:29:59;96771.00;;;16.30;44.56
70434;BME280;57876;47.792;12.960;2023-03-21T11:32:32;96780.81;;;16.31;44.91
70434;BME280;57876;47.792;12.960;2023-03-21T11:35:00;96774.22;;;16.32;44.54
70434;BME280;57876;47.792;12.960;2023-03-21T11:37:37;96766.69;;;16.29;44.47
70434;BME280;57876;47.792;12.960;2023-03-21T11:42:44;96754.63;;;16.30;44.69
70434;BME280;57876;47.792;12.960;2023-03-21T11:45:14;96754.81;;;16.34;44.41
70434;BME280;57876;47.792;12.960;2023-03-21T11:47:39;96748.22;;;16.35;44.77
70434;BME280;57876;47.792;12.960;2023-03-21T11:50:16;96750.94;;;16.35;44.48
70434;BME280;57876;47.792;12.960;2023-03-21T11:52:50;96741.97;;;16.34;44.56
70434;BME280;57876;47.792;12.960;2023-03-21T11:58:19;96738.09;;;16.35;44.56
70434;BME280;57876;47.792;12.960;2023-03-21T12:03:44;96724.00;;;16.33;44.55
70434;BME280;57876;47.792;12.960;2023-03-21T12:23:35;96699.44;;;16.33;44.42
70434;BME280;57876;47.792;12.960;2023-03-21T12:25:31;96686.09;;;16.32;44.42
70434;BME280;57876;47.792;12.960;2023-03-21T12:28:15;96683.38;;;16.32;44.58
70434;BME280;57876;47.792;12.960;2023-03-21T12:41:39;96659.94;;;16.31;44.59
70434;BME280;57876;47.792;12.960;2023-03-21T12:44:13;96655.28;;;16.31;44.83
70434;BME280;57876;47.792;12.960;2023-03-21T12:46:44;96664.25;;;16.32;44.44
70434;BME280;57876;47.792;12.960;2023-03-21T12:49:33;96659.28;;;16.34;44.42
70434;BME280;57876;47.792;12.960;2023-03-21T12:52:12;96646.59;;;16.29;44.61
70434;BME280;57876;47.792;12.960;2023-03-21T12:54:50;96648.38;;;16.34;44.66
70434;BME280;57876;47.792;12.960;2023-03-21T12:57:20;96640.19;;;16.34;44.76
70434;BME280;57876;47.792;12.960;2023-03-21T12:59:58;96635.03;;;16.32;44.71
70434;BME280;57876;47.792;12.960;2023-03-21T13:02:37;96636.66;;;16.33;44.55
70434;BME280;57876;47.792;12.960;2023-03-21T13:07:42;96629.25;;;16.34;44.75
70434;BME280;57876;47.792;12.960;2023-03-21T13:10:14;96631.66;;;16.35;44.74
70434;BME280;57876;47.792;12.960;2023-03-21T13:13:04;96622.34;;;16.36;44.56
70434;BME280;57876;47.792;12.960;2023-03-21T13:20:58;96608.53;;;16.33;44.45
70434;BME280;57876;47.792;12.960;2023-03-21T13:23:33;96609.81;;;16.35;44.64
70434;BME280;57876;47.792;12.960;2023-03-21T13:25:58;96615.28;;;16.35;44.83
70434;BME280;57876;47.792;12.960;2023-03-21T13:28:28;96605.50;;;16.34;44.63
70434;BME280;57876;47.792;12.960;2023-03-21T13:30:52;96607.06;;;16.35;44.79
70434;BME280;57876;47.792;12.960;2023-03-21T13:33:38;96609.34;;;16.33;44.75
70434;BME280;57876;47.792;12.960;2023-03-21T13:36:07;96604.69;;;16.34;44.89
70434;BME280;57876;47.792;12.960;2023-03-21T13:38:34;96598.44;;;16.33;44.43
70434;BME280;57876;47.792;12.960;2023-03-21T13:41:19;96602.75;;;16.34;44.83
70434;BME280;57876;47.792;12.960;2023-03-21T13:44:07;96605.50;;;16.34;44.24
70434;BME280;57876;47.792;12.960;2023-03-21T13:46:36;96605.50;;;16.34;44.26
70434;BME280;57876;47.792;12.960;2023-03-21T13:51:50;96590.72;;;16.35;44.63
70434;BME280;57876;47.792;12.960;2023-03-21T13:57:05;96586.88;;;16.36;44.39
70434;BME280;57876;47.792;12.960;2023-03-21T13:59:42;96593.91;;;16.37;44.51
70434;BME280;57876;47.792;12.960;2023-03-21T14:04:50;96586.88;;;16.36;44.86
70434;BME280;57876;47.792;12.960;2023-03-21T14:09:48;96578.69;;;16.36;44.39
70434;BME280;57876;47.792;12.960;2023-03-21T14:12:16;96579.47;;;16.37;44.78
70434;BME280;57876;47.792;12.960;2023-03-21T14:15:04;96570.50;;;16.36;44.72
70434;BME280;57876;47.792;12.960;2023-03-21T14:17:32;96583.00;;;16.37;44.51
70434;BME280;57876;47.792;12.960;2023-03-21T14:20:05;96572.09;;;16.37;44.74
70434;BME280;57876;47.792;12.960;2023-03-21T14:22:35;96574.81;;;16.37;44.79
70434;BME280;57876;47.792;12.960;2023-03-21T14:25:01;96568.06;;;16.35;44.43
70434;BME280;57876;47.792;12.960;2023-03-21T14:27:30;96571.28;;;16.37;44.34
70434;BME280;57876;47.792;12.960;2023-03-21T14:29:57;96573.22;;;16.36;44.77
70434;BME280;57876;47.792;12.960;2023-03-21T14:32:26;96567.75;;;16.36;44.55